Time;durP1;ratioP1;P1;durP2;ratioP2;P2;SDS_P1;SDS_P2;PMS_P1;PMS_P2;Temp;Humidity;BMP_temperature;BMP_pressure;BME280_temperature;BME280_humidity;BME280_pressure;Samples;Min_cycle;Max_cycle;Signal;HPM_P1;HPM_P2
2023/12/04 00:01:18;;;;;;;5.40;4.88;;;-9.80;99.90;;;;;;5073789;28;20385;-33
2023/12/04 00:03:44;;;;;;;8.43;6.78;;;-9.70;99.90;;;;;;5074377;28;20039;-32
2023/12/04 00:06:11;;;;;;;11.35;8.32;;;-9.70;99.90;;;;;;5073058;28;20056;-32
2023/12/04 00:08:37;;;;;;;16.95;8.02;;;-9.60;99.90;;;;;;5072598;28;20405;-33
2023/12/04 00:11:04;;;;;;;7.00;6.45;;;-9.50;99.90;;;;;;5070029;28;20436;-33
2023/12/04 00:13:30;;;;;;;5.18;4.68;;;-9.40;99.90;;;;;;5069658;28;20545;-35
2023/12/04 00:15:55;;;;;;;6.57;4.60;;;-9.40;99.90;;;;;;5072286;28;20112;-33
2023/12/04 00:18:21;;;;;;;7.72;6.32;;;-9.30;99.90;;;;;;5067108;28;20036;-35
2023/12/04 00:20:46;;;;;;;7.53;6.80;;;-9.30;99.90;;;;;;5076365;28;20131;-40
2023/12/04 00:23:12;;;;;;;2.78;2.67;;;-9.20;99.90;;;;;;5076028;28;20024;-41
2023/12/04 00:25:37;;;;;;;3.65;3.33;;;-9.20;99.90;;;;;;5070248;28;20726;-40
2023/12/04 00:28:03;;;;;;;5.80;4.80;;;-9.20;99.90;;;;;;5070392;28;20115;-38
2023/12/04 00:30:29;;;;;;;8.63;6.32;;;-9.30;99.90;;;;;;5068107;27;20045;-40
2023/12/04 00:32:55;;;;;;;4.60;3.67;;;-9.40;99.90;;;;;;5069265;28;20099;-38
2023/12/04 00:35:20;;;;;;;7.53;5.63;;;-9.40;99.90;;;;;;5073699;28;20548;-34
2023/12/04 00:37:46;;;;;;;6.85;6.35;;;-9.30;99.90;;;;;;5071986;28;20119;-41
2023/12/04 00:40:12;;;;;;;5.68;5.38;;;-9.30;99.90;;;;;;5082234;28;20060;-42
2023/12/04 00:42:38;;;;;;;4.45;4.05;;;-9.30;99.90;;;;;;5066867;28;20059;-41
2023/12/04 00:45:04;;;;;;;5.60;5.15;;;-9.20;99.90;;;;;;5070903;28;20017;-41
2023/12/04 00:47:29;;;;;;;7.38;5.68;;;-9.30;99.90;;;;;;5071197;28;20044;-37
2023/12/04 00:49:55;;;;;;;7.03;6.53;;;-9.50;99.90;;;;;;5072114;28;20032;-33
2023/12/04 00:52:20;;;;;;;8.02;6.68;;;-9.40;99.90;;;;;;5072852;28;20032;-36
2023/12/04 00:54:46;;;;;;;7.43;6.43;;;-9.50;99.90;;;;;;5068762;28;20020;-32
2023/12/04 00:57:12;;;;;;;9.13;5.47;;;-9.60;99.90;;;;;;5070081;28;20505;-33
2023/12/04 00:59:37;;;;;;;4.68;4.35;;;-9.70;99.90;;;;;;5070308;28;20029;-32
2023/12/04 01:02:03;;;;;;;6.15;5.63;;;-9.60;99.90;;;;;;5069717;28;20033;-32
2023/12/04 01:04:30;;;;;;;5.25;4.78;;;-9.50;99.90;;;;;;5073314;28;20490;-32
2023/12/04 01:06:56;;;;;;;12.60;5.72;;;-9.50;99.90;;;;;;5069666;28;20032;-36
2023/12/04 01:09:24;;;;;;;4.55;4.15;;;-9.40;99.90;;;;;;5070810;28;20482;-36
2023/12/04 01:11:53;;;;;;;8.37;5.23;;;-9.40;99.90;;;;;;5071748;28;20438;-33
2023/12/04 01:14:20;;;;;;;6.07;5.60;;;-9.40;99.90;;;;;;5068989;28;20024;-32
2023/12/04 01:16:46;;;;;;;5.00;4.60;;;-9.60;99.90;;;;;;5068284;28;20026;-32
2023/12/04 01:19:12;;;;;;;7.07;4.63;;;-9.70;99.90;;;;;;5074509;28;20397;-33
2023/12/04 01:21:37;;;;;;;9.73;6.75;;;-9.80;99.90;;;;;;5078540;28;20047;-32
2023/12/04 01:24:03;;;;;;;5.72;4.95;;;-9.90;99.90;;;;;;5076836;28;20055;-33
2023/12/04 01:26:29;;;;;;;3.65;3.45;;;-9.90;99.90;;;;;;5068287;28;20051;-36
2023/12/04 01:28:55;;;;;;;5.55;5.10;;;-9.90;99.90;;;;;;5073177;28;20447;-38
2023/12/04 01:31:20;;;;;;;6.05;5.43;;;-9.90;99.90;;;;;;5070765;27;20522;-37
2023/12/04 01:33:46;;;;;;;7.55;5.50;;;-9.80;99.90;;;;;;5068889;28;20045;-41
2023/12/04 01:36:12;;;;;;;5.72;4.68;;;-9.80;99.90;;;;;;5067983;28;20481;-37
2023/12/04 01:38:38;;;;;;;6.90;6.10;;;-9.80;99.90;;;;;;5072364;28;20064;-41
2023/12/04 01:41:04;;;;;;;7.20;6.70;;;-9.80;99.90;;;;;;5071465;28;20024;-41
2023/12/04 01:43:30;;;;;;;6.22;4.60;;;-9.80;99.90;;;;;;5075182;28;20029;-35
2023/12/04 01:45:56;;;;;;;9.98;7.85;;;-9.80;99.90;;;;;;5076420;28;20069;-41
2023/12/04 01:48:23;;;;;;;7.47;6.88;;;-9.80;99.90;;;;;;5074556;28;20085;-34
2023/12/04 01:50:49;;;;;;;6.13;5.70;;;-9.70;99.90;;;;;;5078422;28;20525;-40
2023/12/04 01:53:15;;;;;;;5.47;4.95;;;-9.70;99.90;;;;;;5074587;28;20028;-40
2023/12/04 01:55:41;;;;;;;6.38;5.68;;;-9.70;99.90;;;;;;5079290;28;20543;-42
2023/12/04 01:58:07;;;;;;;7.18;6.22;;;-9.60;99.90;;;;;;5073246;28;20419;-38
2023/12/04 02:00:33;;;;;;;10.52;5.63;;;-9.60;99.90;;;;;;5073632;28;20113;-40
2023/12/04 02:02:59;;;;;;;6.15;3.92;;;-9.80;99.90;;;;;;5076602;28;20052;-36
2023/12/04 02:05:27;;;;;;;4.88;4.57;;;-9.90;99.90;;;;;;5078468;28;20032;-39
2023/12/04 02:07:53;;;;;;;5.87;4.47;;;-10.00;99.90;;;;;;5074513;28;20096;-38
2023/12/04 02:10:19;;;;;;;4.68;4.38;;;-10.00;99.90;;;;;;5072403;28;20263;-38
2023/12/04 02:12:45;;;;;;;5.13;4.63;;;-10.00;99.90;;;;;;5074742;28;20428;-39
2023/12/04 02:15:10;;;;;;;4.15;3.85;;;-10.00;99.90;;;;;;5074858;28;20016;-39
2023/12/04 02:17:37;;;;;;;6.35;5.80;;;-10.00;99.90;;;;;;5073484;28;20511;-40
2023/12/04 02:20:03;;;;;;;6.82;6.30;;;-9.90;99.90;;;;;;5070843;28;20028;-39
2023/12/04 02:22:29;;;;;;;6.13;5.45;;;-9.90;99.90;;;;;;5077115;28;20020;-37
2023/12/04 02:24:58;;;;;;;5.38;5.07;;;-10.00;99.90;;;;;;5075261;28;20556;-39
2023/12/04 02:27:28;;;;;;;4.90;4.40;;;-10.00;99.90;;;;;;5070874;28;20139;-37
2023/12/04 02:30:00;;;;;;;4.63;4.22;;;-10.10;99.90;;;;;;5075820;28;20051;-37
2023/12/04 02:32:32;;;;;;;5.78;3.95;;;-10.10;99.90;;;;;;5078601;28;20024;-40
2023/12/04 02:35:02;;;;;;;6.75;5.88;;;-10.20;99.90;;;;;;5073338;28;20047;-40
2023/12/04 02:37:28;;;;;;;6.97;6.03;;;-10.30;99.90;;;;;;5074255;28;20111;-40
2023/12/04 02:39:55;;;;;;;7.78;5.97;;;-10.30;99.90;;;;;;5071996;28;20321;-39
2023/12/04 02:42:21;;;;;;;14.35;6.75;;;-10.30;99.90;;;;;;5071690;28;20032;-34
2023/12/04 02:44:47;;;;;;;3.75;3.47;;;-10.30;99.90;;;;;;5072402;28;20384;-37
2023/12/04 02:47:13;;;;;;;3.95;3.58;;;-10.20;99.90;;;;;;5075571;28;20511;-40
2023/12/04 02:49:39;;;;;;;5.70;5.22;;;-10.10;99.90;;;;;;5069013;28;20024;-39
2023/12/04 02:52:05;;;;;;;5.43;5.15;;;-10.10;99.90;;;;;;5071334;28;20043;-39
2023/12/04 02:54:30;;;;;;;4.90;4.53;;;-10.10;99.90;;;;;;5072048;28;20020;-37
2023/12/04 02:56:56;;;;;;;5.40;4.97;;;-10.20;99.90;;;;;;5072733;28;20033;-39
2023/12/04 02:59:21;;;;;;;3.88;3.70;;;-10.10;99.90;;;;;;5069302;28;20119;-37
2023/12/04 03:01:47;;;;;;;5.72;5.35;;;-10.10;99.90;;;;;;5078605;27;20047;-38
2023/12/04 03:04:13;;;;;;;10.70;6.50;;;-10.00;99.90;;;;;;5080613;28;20047;-38
2023/12/04 03:06:38;;;;;;;10.43;5.72;;;-9.90;99.90;;;;;;5077375;28;20110;-33
2023/12/04 03:09:04;;;;;;;7.32;5.88;;;-10.00;99.90;;;;;;5071168;28;20024;-33
2023/12/04 03:11:30;;;;;;;3.95;3.78;;;-10.00;99.90;;;;;;5070435;28;20031;-35
2023/12/04 03:13:56;;;;;;;3.58;3.47;;;-10.10;99.90;;;;;;5072177;28;20028;-33
2023/12/04 03:16:22;;;;;;;9.85;5.20;;;-10.00;99.90;;;;;;5072593;28;20496;-37
2023/12/04 03:18:48;;;;;;;6.05;5.70;;;-9.90;99.90;;;;;;5071937;28;20024;-33
2023/12/04 03:21:13;;;;;;;4.40;4.22;;;-9.90;99.90;;;;;;5075944;28;20044;-35
2023/12/04 03:23:39;;;;;;;5.65;5.22;;;-10.00;99.90;;;;;;5075112;28;20020;-34
2023/12/04 03:26:05;;;;;;;6.45;5.65;;;-10.10;99.90;;;;;;5072020;28;20025;-33
2023/12/04 03:28:30;;;;;;;3.85;3.65;;;-10.10;99.90;;;;;;5075143;28;20212;-33
2023/12/04 03:30:56;;;;;;;3.92;3.72;;;-10.20;99.90;;;;;;5073265;28;20033;-33
2023/12/04 03:33:22;;;;;;;5.57;5.07;;;-10.30;99.90;;;;;;5067298;28;20017;-34
2023/12/04 03:35:47;;;;;;;16.83;5.63;;;-10.30;99.90;;;;;;5072757;28;20036;-33
2023/12/04 03:38:13;;;;;;;7.40;4.93;;;-10.40;99.90;;;;;;5074879;28;20029;-33
2023/12/04 03:40:39;;;;;;;5.10;4.18;;;-10.40;99.90;;;;;;5067606;28;20370;-35
2023/12/04 03:43:04;;;;;;;5.45;5.15;;;-10.40;99.90;;;;;;5073741;28;20024;-32
2023/12/04 03:45:30;;;;;;;6.53;5.40;;;-10.40;99.90;;;;;;5070810;28;20406;-36
2023/12/04 03:47:55;;;;;;;6.05;4.47;;;-10.40;99.90;;;;;;5075495;28;20093;-34
2023/12/04 03:50:21;;;;;;;7.93;5.03;;;-10.30;99.90;;;;;;5073789;28;20035;-36
2023/12/04 03:52:47;;;;;;;6.95;4.00;;;-10.30;99.90;;;;;;5074728;28;20833;-31
2023/12/04 03:55:12;;;;;;;4.68;4.32;;;-10.30;99.90;;;;;;5073463;28;20096;-30
2023/12/04 03:57:38;;;;;;;4.65;4.45;;;-10.30;99.90;;;;;;5078857;28;20047;-30
2023/12/04 04:00:04;;;;;;;6.57;6.00;;;-10.30;99.90;;;;;;5074772;28;20020;-30
2023/12/04 04:02:30;;;;;;;7.22;6.00;;;-10.30;99.90;;;;;;5072114;28;20444;-33
2023/12/04 04:04:56;;;;;;;6.22;5.20;;;-10.30;99.90;;;;;;5080452;28;20081;-31
2023/12/04 04:07:21;;;;;;;11.60;7.97;;;-10.30;99.90;;;;;;5074504;28;20493;-36
2023/12/04 04:09:47;;;;;;;4.75;4.40;;;-10.30;99.90;;;;;;5078588;28;20260;-31
2023/12/04 04:12:12;;;;;;;6.07;4.60;;;-10.40;99.90;;;;;;5073053;28;20060;-34
2023/12/04 04:14:38;;;;;;;6.30;5.93;;;-10.40;99.90;;;;;;5076117;28;20038;-33
2023/12/04 04:17:04;;;;;;;3.05;2.95;;;-10.30;99.90;;;;;;5073395;28;20024;-31
2023/12/04 04:19:30;;;;;;;5.72;5.25;;;-10.20;99.90;;;;;;5071612;28;20102;-31
2023/12/04 04:21:56;;;;;;;6.13;5.72;;;-10.20;99.90;;;;;;5072539;28;20105;-31
2023/12/04 04:24:21;;;;;;;4.40;4.13;;;-10.30;99.90;;;;;;5070048;28;20024;-35
2023/12/04 04:26:47;;;;;;;9.07;5.00;;;-10.40;99.90;;;;;;5073462;28;20043;-32
2023/12/04 04:29:13;;;;;;;6.43;5.70;;;-10.40;99.90;;;;;;5070636;28;20066;-31
2023/12/04 04:31:38;;;;;;;4.45;4.15;;;-10.40;99.90;;;;;;5072831;27;20047;-35
2023/12/04 04:34:04;;;;;;;4.88;4.45;;;-10.50;99.90;;;;;;5078649;28;20035;-33
2023/12/04 04:36:30;;;;;;;3.17;3.08;;;-10.50;99.90;;;;;;5066336;28;20450;-31
2023/12/04 04:38:55;;;;;;;3.67;3.47;;;-10.50;99.90;;;;;;5072613;28;20017;-32
2023/12/04 04:41:21;;;;;;;4.53;4.22;;;-10.40;99.90;;;;;;5066790;28;20029;-37
2023/12/04 04:43:46;;;;;;;6.57;4.68;;;-10.50;99.90;;;;;;5077467;28;20497;-32
2023/12/04 04:46:13;;;;;;;8.18;6.65;;;-10.60;99.90;;;;;;5069844;28;20036;-31
2023/12/04 04:48:40;;;;;;;6.47;5.88;;;-10.90;99.90;;;;;;5073194;28;20562;-31
2023/12/04 04:51:05;;;;;;;6.50;5.28;;;-10.90;99.90;;;;;;5074225;28;20024;-31
2023/12/04 04:53:31;;;;;;;5.05;4.82;;;-10.90;99.90;;;;;;5071026;28;20498;-34
2023/12/04 04:55:57;;;;;;;7.80;6.65;;;-10.70;99.90;;;;;;5073612;28;20025;-32
2023/12/04 04:58:22;;;;;;;6.38;4.40;;;-10.70;99.90;;;;;;5070472;28;20024;-41
2023/12/04 05:00:48;;;;;;;3.42;3.28;;;-10.70;99.90;;;;;;5075126;27;20028;-40
2023/12/04 05:03:14;;;;;;;3.22;3.13;;;-10.60;99.90;;;;;;5073342;28;20031;-40
2023/12/04 05:05:39;;;;;;;6.88;5.47;;;-10.60;99.90;;;;;;5075874;28;20028;-43
2023/12/04 05:08:05;;;;;;;4.60;4.30;;;-10.60;99.90;;;;;;5068382;28;20486;-42
2023/12/04 05:10:31;;;;;;;5.45;4.70;;;-10.50;99.90;;;;;;5062320;28;20441;-42
2023/12/04 05:12:56;;;;;;;6.00;5.35;;;-10.60;99.90;;;;;;5072400;28;20071;-42
2023/12/04 05:15:22;;;;;;;4.95;4.45;;;-10.60;99.90;;;;;;5078496;28;20032;-35
2023/12/04 05:17:47;;;;;;;4.63;4.00;;;-10.70;99.90;;;;;;5073512;28;20038;-38
2023/12/04 05:20:13;;;;;;;5.30;4.80;;;-10.90;99.90;;;;;;5074673;28;20115;-40
2023/12/04 05:22:40;;;;;;;5.75;5.07;;;-10.90;99.90;;;;;;5077212;28;20108;-41
2023/12/04 05:25:06;;;;;;;7.05;4.30;;;-10.80;99.90;;;;;;5077903;28;20500;-40
2023/12/04 05:27:32;;;;;;;6.25;5.70;;;-10.70;99.90;;;;;;5073931;28;20071;-35
2023/12/04 05:29:58;;;;;;;7.57;5.28;;;-10.60;99.90;;;;;;5070472;28;20098;-33
2023/12/04 05:32:23;;;;;;;4.18;3.88;;;-10.70;99.90;;;;;;5075360;27;20047;-34
2023/12/04 05:34:49;;;;;;;4.80;3.33;;;-10.60;99.90;;;;;;5079647;28;20050;-32
2023/12/04 05:37:14;;;;;;;6.50;5.45;;;-10.70;99.90;;;;;;5072021;28;20475;-32
2023/12/04 05:39:41;;;;;;;3.28;3.17;;;-10.70;99.90;;;;;;5073770;28;20024;-32
2023/12/04 05:42:06;;;;;;;2.08;2.05;;;-11.00;99.90;;;;;;5074985;28;20036;-34
2023/12/04 05:44:33;;;;;;;3.30;3.13;;;-11.10;99.90;;;;;;5074530;28;20036;-33
2023/12/04 05:46:58;;;;;;;8.43;5.28;;;-11.20;99.90;;;;;;5077200;28;20034;-37
2023/12/04 05:49:24;;;;;;;11.10;8.15;;;-11.10;99.90;;;;;;5078183;28;20417;-35
2023/12/04 05:51:50;;;;;;;4.28;4.07;;;-10.90;99.90;;;;;;5076363;28;20033;-33
2023/12/04 05:54:15;;;;;;;2.25;2.25;;;-10.80;99.90;;;;;;5073259;28;20021;-38
2023/12/04 05:56:41;;;;;;;3.05;2.95;;;-10.90;99.90;;;;;;5074680;28;20039;-33
2023/12/04 05:59:06;;;;;;;3.08;2.97;;;-11.20;99.90;;;;;;5078108;28;20050;-33
2023/12/04 06:01:32;;;;;;;4.03;3.78;;;-11.00;99.90;;;;;;5068368;28;20417;-33
2023/12/04 06:03:58;;;;;;;5.25;4.85;;;-10.80;99.90;;;;;;5072565;28;20044;-34
2023/12/04 06:06:23;;;;;;;5.18;4.53;;;-10.80;99.90;;;;;;5071163;28;20491;-36
2023/12/04 06:08:49;;;;;;;4.82;4.53;;;-10.80;99.90;;;;;;5075111;28;20035;-40
2023/12/04 06:11:15;;;;;;;4.95;4.60;;;-10.80;99.90;;;;;;5072545;28;20036;-41
2023/12/04 06:13:41;;;;;;;4.03;3.85;;;-10.80;99.90;;;;;;5071570;28;20462;-31
2023/12/04 06:16:07;;;;;;;4.35;4.05;;;-10.80;99.90;;;;;;5081311;28;20055;-40
2023/12/04 06:18:33;;;;;;;5.78;5.38;;;-10.80;99.90;;;;;;5076309;28;20028;-38
2023/12/04 06:20:59;;;;;;;4.75;4.38;;;-10.80;99.90;;;;;;5077490;28;20054;-42
2023/12/04 06:23:25;;;;;;;9.02;5.65;;;-10.90;99.90;;;;;;5072075;28;20111;-40
2023/12/04 06:25:51;;;;;;;6.25;5.85;;;-11.10;99.90;;;;;;5075113;28;20024;-42
2023/12/04 06:28:17;;;;;;;10.68;7.93;;;-11.10;99.90;;;;;;5073478;28;20082;-39
2023/12/04 06:30:43;;;;;;;3.40;3.28;;;-11.10;99.90;;;;;;5070465;28;20033;-41
2023/12/04 06:33:09;;;;;;;6.10;5.63;;;-11.00;99.90;;;;;;5073773;28;20047;-40
2023/12/04 06:35:36;;;;;;;7.30;5.78;;;-10.90;99.90;;;;;;5071899;28;20023;-41
2023/12/04 06:38:06;;;;;;;4.75;4.43;;;-10.60;99.90;;;;;;5072705;28;20028;-36
2023/12/04 06:40:33;;;;;;;5.10;4.80;;;-10.40;99.90;;;;;;5080516;28;20028;-41
2023/12/04 06:43:00;;;;;;;11.20;5.93;;;-10.40;99.90;;;;;;5073125;28;20123;-41
2023/12/04 06:45:27;;;;;;;4.13;3.88;;;-10.60;99.90;;;;;;5084264;28;20034;-42
2023/12/04 06:47:54;;;;;;;5.90;5.35;;;-10.70;99.90;;;;;;5077495;28;20508;-40
2023/12/04 06:50:20;;;;;;;4.53;4.22;;;-10.80;99.90;;;;;;5073637;28;20024;-35
2023/12/04 06:52:46;;;;;;;4.07;3.90;;;-10.80;99.90;;;;;;5084079;28;20031;-43
2023/12/04 06:55:13;;;;;;;4.10;3.88;;;-10.70;99.90;;;;;;5081194;28;20051;-40
2023/12/04 06:57:39;;;;;;;5.45;4.95;;;-10.80;99.90;;;;;;5095664;28;20105;-40
2023/12/04 07:00:12;;;;;;;3.78;3.58;;;-10.90;99.90;;;;;;5078242;28;20056;-41
2023/12/04 07:02:38;;;;;;;4.90;4.47;;;-11.00;99.90;;;;;;5079500;27;20501;-39
2023/12/04 07:05:04;;;;;;;5.43;4.97;;;-11.10;99.90;;;;;;5081826;28;20031;-41
2023/12/04 07:07:29;;;;;;;4.30;4.00;;;-11.10;99.90;;;;;;5082747;28;20486;-37
2023/12/04 07:09:55;;;;;;;2.85;2.75;;;-11.10;99.90;;;;;;5081475;28;20237;-42
2023/12/04 07:12:21;;;;;;;4.95;4.65;;;-11.30;99.90;;;;;;5079433;28;20484;-36
2023/12/04 07:14:47;;;;;;;3.15;2.95;;;-11.30;99.90;;;;;;5079830;28;20031;-41
2023/12/04 07:17:13;;;;;;;3.10;2.95;;;-11.30;99.90;;;;;;5079315;28;20028;-31
2023/12/04 07:19:41;;;;;;;3.72;3.53;;;-11.30;99.90;;;;;;5082759;28;20032;-31
2023/12/04 07:22:07;;;;;;;4.22;3.90;;;-11.30;99.90;;;;;;5084157;28;20036;-31
2023/12/04 07:24:32;;;;;;;4.60;4.30;;;-11.20;99.90;;;;;;5080265;28;20464;-32
2023/12/04 07:26:58;;;;;;;4.60;4.40;;;-11.00;99.90;;;;;;5083725;28;20128;-37
2023/12/04 07:29:24;;;;;;;11.25;5.10;;;-10.90;99.90;;;;;;5080302;28;20507;-39
2023/12/04 07:31:51;;;;;;;6.15;5.72;;;-10.80;99.90;;;;;;5078636;27;20069;-40
2023/12/04 07:34:17;;;;;;;3.80;3.63;;;-10.90;99.90;;;;;;5075614;28;20055;-38
2023/12/04 07:36:44;;;;;;;7.28;6.45;;;-10.80;99.90;;;;;;5080737;28;20024;-40
2023/12/04 07:39:10;;;;;;;5.80;5.47;;;-10.70;99.90;;;;;;5079683;28;20867;-40
2023/12/04 07:41:36;;;;;;;4.30;4.10;;;-10.70;99.90;;;;;;5076344;28;20036;-39
2023/12/04 07:44:03;;;;;;;8.85;5.75;;;-10.70;99.90;;;;;;5072771;28;20386;-39
2023/12/04 07:46:29;;;;;;;4.63;4.53;;;-10.80;99.90;;;;;;5078505;28;20355;-39
2023/12/04 07:48:55;;;;;;;5.85;4.75;;;-10.80;99.90;;;;;;5073899;28;20020;-41
2023/12/04 07:51:20;;;;;;;17.25;5.20;;;-10.80;99.90;;;;;;5074356;28;20021;-38
2023/12/04 07:53:47;;;;;;;6.13;5.53;;;-10.80;99.90;;;;;;5078446;28;20047;-41
2023/12/04 07:56:13;;;;;;;6.00;5.60;;;-10.70;99.90;;;;;;5082100;28;20530;-40
2023/12/04 07:58:39;;;;;;;4.38;4.07;;;-10.50;99.90;;;;;;5073388;28;20116;-40
2023/12/04 08:01:05;;;;;;;5.63;5.20;;;-10.60;99.90;;;;;;5078088;28;20028;-41
2023/12/04 08:03:31;;;;;;;6.10;5.70;;;-10.60;99.90;;;;;;5078626;28;20037;-35
2023/12/04 08:05:58;;;;;;;7.28;6.60;;;-10.50;99.90;;;;;;5072576;28;20032;-40
2023/12/04 08:08:24;;;;;;;9.95;4.90;;;-10.40;99.90;;;;;;5079084;28;20050;-40
2023/12/04 08:10:49;;;;;;;5.07;4.80;;;-10.40;99.90;;;;;;5075808;28;20016;-40
2023/12/04 08:13:16;;;;;;;7.68;7.00;;;-10.20;99.90;;;;;;5071281;28;20107;-39
2023/12/04 08:15:42;;;;;;;5.32;4.93;;;-10.10;99.90;;;;;;5073964;28;20111;-38
2023/12/04 08:18:07;;;;;;;12.00;8.00;;;-10.10;99.90;;;;;;5077594;28;21015;-36
2023/12/04 08:20:33;;;;;;;7.13;6.50;;;-10.10;99.90;;;;;;5076730;28;20097;-41
2023/12/04 08:22:59;;;;;;;6.18;5.68;;;-10.10;99.90;;;;;;5078287;28;20456;-40
2023/12/04 08:25:25;;;;;;;5.57;5.07;;;-10.00;99.90;;;;;;5083297;28;20115;-40
2023/12/04 08:27:51;;;;;;;10.68;7.28;;;-10.00;99.90;;;;;;5075610;28;20032;-31
2023/12/04 08:30:16;;;;;;;6.80;5.70;;;-10.00;99.90;;;;;;5075055;28;20082;-38
2023/12/04 08:32:43;;;;;;;8.75;4.82;;;-10.00;99.90;;;;;;5082048;28;20032;-31
2023/12/04 08:35:08;;;;;;;7.40;6.18;;;-9.90;99.90;;;;;;5082378;28;20036;-34
2023/12/04 08:37:34;;;;;;;5.75;5.32;;;-9.80;99.90;;;;;;5071807;28;20090;-42
2023/12/04 08:40:00;;;;;;;4.60;4.30;;;-9.80;99.90;;;;;;5077907;28;20033;-42
2023/12/04 08:42:26;;;;;;;6.35;5.95;;;-9.80;99.90;;;;;;5070621;28;20036;-44
2023/12/04 08:44:51;;;;;;;9.23;6.07;;;-9.80;99.90;;;;;;5075585;28;20032;-42
2023/12/04 08:47:17;;;;;;;4.53;4.30;;;-9.80;99.90;;;;;;5086606;28;20024;-37
2023/12/04 08:49:43;;;;;;;4.50;4.20;;;-9.80;99.90;;;;;;5076432;28;20032;-33
2023/12/04 08:52:09;;;;;;;5.88;4.38;;;-9.80;99.90;;;;;;5074078;28;20461;-33
2023/12/04 08:54:38;;;;;;;8.32;7.32;;;-9.70;99.90;;;;;;5082541;28;20020;-34
2023/12/04 08:57:04;;;;;;;7.28;6.68;;;-9.70;99.90;;;;;;5077065;28;20101;-34
2023/12/04 08:59:29;;;;;;;7.53;6.10;;;-9.60;99.90;;;;;;5081503;28;20107;-34
2023/12/04 09:01:55;;;;;;;4.10;3.90;;;-9.50;99.90;;;;;;5081734;27;20039;-35
2023/12/04 09:04:21;;;;;;;8.75;6.78;;;-9.50;99.90;;;;;;5083790;28;20809;-33
2023/12/04 09:06:46;;;;;;;8.13;7.43;;;-9.40;99.90;;;;;;5084434;28;20031;-33
2023/12/04 09:09:13;;;;;;;8.13;7.53;;;-9.50;99.90;;;;;;5081815;28;20032;-33
2023/12/04 09:11:43;;;;;;;8.10;5.43;;;-9.50;99.90;;;;;;5082169;28;20085;-34
2023/12/04 09:14:09;;;;;;;8.68;7.05;;;-9.40;99.90;;;;;;5074144;28;20028;-36
2023/12/04 09:16:35;;;;;;;11.32;7.47;;;-9.30;99.90;;;;;;5076998;28;20024;-34
2023/12/04 09:19:00;;;;;;;8.55;7.50;;;-9.50;99.90;;;;;;5081487;28;20035;-34
2023/12/04 09:21:26;;;;;;;5.47;4.95;;;-9.70;99.90;;;;;;5079708;28;20126;-34
2023/12/04 09:23:52;;;;;;;7.05;6.55;;;-9.70;99.90;;;;;;5080381;28;20606;-33
2023/12/04 09:26:18;;;;;;;5.60;5.05;;;-9.60;99.90;;;;;;5083123;28;20052;-34
2023/12/04 09:28:44;;;;;;;4.78;4.57;;;-9.50;99.90;;;;;;5078089;28;20055;-33
2023/12/04 09:31:09;;;;;;;4.68;4.35;;;-9.40;99.90;;;;;;5073449;28;20029;-34
2023/12/04 09:33:36;;;;;;;6.05;5.32;;;-9.30;99.90;;;;;;5077914;28;20027;-33
2023/12/04 09:36:02;;;;;;;7.65;6.15;;;-9.20;99.90;;;;;;5083721;28;20022;-36
2023/12/04 09:38:28;;;;;;;7.75;6.93;;;-9.10;99.90;;;;;;5079379;28;20024;-40
2023/12/04 09:40:59;;;;;;;10.73;7.95;;;-9.00;99.90;;;;;;5069577;28;20039;-38
2023/12/04 09:43:26;;;;;;;8.10;5.55;;;-9.00;99.90;;;;;;5076883;28;20032;-40
2023/12/04 09:45:52;;;;;;;5.75;5.32;;;-8.80;99.90;;;;;;5075285;28;20032;-42
2023/12/04 09:48:18;;;;;;;8.40;6.97;;;-8.70;99.90;;;;;;5081051;28;20483;-31
2023/12/04 09:50:46;;;;;;;6.22;4.97;;;-8.60;99.90;;;;;;5072373;28;20039;-30
2023/12/04 09:53:13;;;;;;;;;;;-8.70;99.90;;;;;;5083438;28;20028;-31
2023/12/04 09:55:40;;;;;;;8.88;6.60;;;-8.70;99.90;;;;;;5085011;28;19919;-32
2023/12/04 09:58:06;;;;;;;6.47;5.95;;;-8.70;99.90;;;;;;5076903;28;20029;-33
2023/12/04 10:00:32;;;;;;;8.15;5.10;;;-8.60;99.90;;;;;;5076657;28;20039;-33
2023/12/04 10:02:59;;;;;;;5.32;4.93;;;-8.60;99.90;;;;;;5076208;28;20052;-33
2023/12/04 10:05:25;;;;;;;5.60;4.70;;;-8.60;99.90;;;;;;5087219;28;20051;-33
2023/12/04 10:07:51;;;;;;;4.20;3.63;;;-8.50;99.90;;;;;;5080820;28;20089;-41
2023/12/04 10:10:18;;;;;;;4.88;4.57;;;-8.50;99.90;;;;;;5077404;28;20413;-36
2023/12/04 10:12:43;;;;;;;4.45;4.05;;;-8.40;99.90;;;;;;5077911;28;20027;-43
2023/12/04 10:15:11;;;;;;;5.90;5.43;;;-8.40;99.90;;;;;;5076520;28;20021;-39
2023/12/04 10:17:38;;;;;;;6.32;5.30;;;-8.30;99.90;;;;;;5082588;28;20294;-33
2023/12/04 10:20:12;;;;;;;6.85;6.18;;;-8.30;99.90;;;;;;5075149;28;20485;-31
2023/12/04 10:22:54;;;;;;;6.80;6.05;;;-8.20;99.90;;;;;;5079745;28;20362;-31
2023/12/04 10:25:20;;;;;;;12.55;6.68;;;-8.00;99.90;;;;;;5075879;28;20032;-31
2023/12/04 10:27:46;;;;;;;7.78;7.03;;;-8.00;99.90;;;;;;5079089;28;20031;-30
2023/12/04 10:30:26;;;;;;;13.00;8.07;;;-8.00;99.90;;;;;;5078157;28;20020;-31
2023/12/04 10:32:55;;;;;;;5.18;4.78;;;-8.00;99.90;;;;;;5077477;28;20097;-31
2023/12/04 10:35:22;;;;;;;6.45;5.88;;;-7.90;99.90;;;;;;5073042;28;20023;-34
2023/12/04 10:37:52;;;;;;;8.25;7.25;;;-7.90;99.90;;;;;;5081043;28;20032;-32
2023/12/04 10:40:28;;;;;;;6.07;5.53;;;-7.80;99.90;;;;;;5075479;28;20039;-36
2023/12/04 10:43:09;;;;;;;13.10;8.82;;;-7.70;99.90;;;;;;5076625;28;20501;-32
2023/12/04 10:45:38;;;;;;;8.05;5.82;;;-7.70;99.90;;;;;;5082382;28;20179;-31
2023/12/04 10:48:05;;;;;;;6.00;5.32;;;-7.70;99.90;;;;;;5080101;28;20050;-31
2023/12/04 10:50:35;;;;;;;8.07;7.45;;;-7.60;99.90;;;;;;5075321;28;20508;-30
2023/12/04 10:53:05;;;;;;;5.30;4.82;;;-7.60;99.90;;;;;;5076727;28;20035;-32
2023/12/04 10:55:31;;;;;;;8.20;5.30;;;-7.50;99.90;;;;;;5081707;28;20027;-32
2023/12/04 10:57:59;;;;;;;10.68;6.05;;;-7.40;99.90;;;;;;5077555;28;20028;-40
2023/12/04 11:00:28;;;;;;;7.05;6.45;;;-7.40;99.90;;;;;;5070196;28;20074;-41
2023/12/04 11:02:57;;;;;;;6.93;5.78;;;-7.30;99.90;;;;;;5080545;28;20036;-37
2023/12/04 11:05:24;;;;;;;10.93;7.75;;;-7.20;99.90;;;;;;5082495;28;20637;-40
2023/12/04 11:07:59;;;;;;;11.50;7.10;;;-7.20;99.90;;;;;;5081844;28;20062;-40
2023/12/04 11:10:27;;;;;;;6.95;6.07;;;-7.20;99.90;;;;;;5077263;28;20574;-40
2023/12/04 11:13:17;;;;;;;10.73;8.35;;;-7.20;99.90;;;;;;5073238;28;20024;-40
2023/12/04 11:15:46;;;;;;;13.35;8.52;;;-7.30;99.90;;;;;;5074419;28;20036;-41
2023/12/04 11:18:15;;;;;;;8.30;5.00;;;-7.30;99.90;;;;;;5078366;28;20040;-40
2023/12/04 11:20:48;;;;;;;7.25;6.68;;;-7.30;99.90;;;;;;5078356;28;20044;-39
2023/12/04 11:23:16;;;;;;;8.88;8.23;;;-7.40;99.90;;;;;;5076336;28;20071;-40
2023/12/04 11:25:44;;;;;;;11.55;7.82;;;-7.30;99.90;;;;;;5075144;28;20371;-38
2023/12/04 11:28:11;;;;;;;8.75;7.20;;;-7.30;99.90;;;;;;5077315;28;20028;-32
2023/12/04 11:30:38;;;;;;;8.93;8.13;;;-7.10;99.90;;;;;;5074035;27;20114;-32
2023/12/04 11:33:05;;;;;;;14.38;7.50;;;-7.00;99.90;;;;;;5083018;28;20480;-33
2023/12/04 11:35:33;;;;;;;16.70;10.10;;;-7.00;99.90;;;;;;5077428;28;20069;-34
2023/12/04 11:37:59;;;;;;;7.07;6.47;;;-6.90;99.90;;;;;;5077447;28;20054;-33
2023/12/04 11:40:25;;;;;;;6.68;6.03;;;-6.80;99.90;;;;;;5078626;28;20034;-32
2023/12/04 11:42:52;;;;;;;4.95;4.13;;;-6.80;99.90;;;;;;5071952;28;20040;-33
2023/12/04 11:45:21;;;;;;;7.07;6.32;;;-6.70;99.90;;;;;;5081028;28;20520;-35
2023/12/04 11:47:50;;;;;;;9.50;7.68;;;-6.60;99.90;;;;;;5076797;28;20035;-34
2023/12/04 11:50:19;;;;;;;7.70;6.95;;;-6.60;99.90;;;;;;5080761;28;20020;-35
2023/12/04 11:52:45;;;;;;;8.20;7.50;;;-6.60;99.90;;;;;;5076462;28;20693;-33
2023/12/04 11:55:11;;;;;;;9.40;7.35;;;-6.50;99.90;;;;;;5074846;28;20028;-32
2023/12/04 11:57:40;;;;;;;6.63;5.95;;;-6.50;99.90;;;;;;5076365;28;20046;-33
2023/12/04 12:00:20;;;;;;;4.55;4.10;;;-6.50;99.90;;;;;;5079873;28;20028;-32
2023/12/04 12:02:52;;;;;;;7.43;6.63;;;-6.50;99.90;;;;;;5071416;28;20028;-32
2023/12/04 12:05:19;;;;;;;9.57;8.27;;;-6.50;99.90;;;;;;5073270;28;20028;-37
2023/12/04 12:07:45;;;;;;;11.88;8.52;;;-6.50;99.90;;;;;;5075772;28;20047;-39
2023/12/04 12:10:13;;;;;;;12.75;9.00;;;-6.60;99.90;;;;;;5076614;28;20036;-39
2023/12/04 12:12:40;;;;;;;17.38;9.77;;;-6.60;99.90;;;;;;5076289;28;20082;-38
2023/12/04 12:15:09;;;;;;;13.27;8.45;;;-6.80;99.90;;;;;;5074694;28;20028;-42
2023/12/04 12:17:34;;;;;;;7.10;6.45;;;-6.80;99.90;;;;;;5073290;28;20036;-40
2023/12/04 12:20:00;;;;;;;13.57;9.20;;;-6.80;99.90;;;;;;5072711;28;20385;-39
2023/12/04 12:22:26;;;;;;;9.05;6.82;;;-6.70;99.90;;;;;;5074766;28;20406;-37
2023/12/04 12:24:51;;;;;;;8.68;7.78;;;-6.60;99.90;;;;;;5073022;28;20377;-35
2023/12/04 12:27:17;;;;;;;10.57;7.55;;;-6.60;99.90;;;;;;5070217;28;20794;-37
2023/12/04 12:29:43;;;;;;;7.25;5.90;;;-6.60;99.90;;;;;;5072196;28;20398;-40
2023/12/04 12:32:08;;;;;;;10.80;7.10;;;-6.60;99.90;;;;;;5076708;27;20040;-40
2023/12/04 12:34:35;;;;;;;8.60;7.40;;;-6.40;99.90;;;;;;5078519;28;20041;-39
2023/12/04 12:37:03;;;;;;;9.73;8.50;;;-6.40;99.90;;;;;;5080756;28;20039;-32